Time,TemperatureF,DewpointF,PressureIn,WindDirection,WindDirectionDegrees,WindSpeedMPH,WindSpeedGustMPH,Humidity,HourlyPrecipIn,Conditions,Clouds,dailyrainin,SoftwareType,DateUTC
2014-09-15 00:05:00,76.3,45.9,29.74,SSE,167,0.0,0.0,34,0.00,,,0.00,Wunderground v.1.15,2014-09-15 07:05:00,
2014-09-15 00:10:00,76.0,46.4,29.74,SSE,167,0.0,0.0,35,0.00,,,0.00,Wunderground v.1.15,2014-09-15 07:10:00,
2014-09-15 00:20:00,75.6,46.0,29.74,SSE,167,0.0,0.0,35,0.00,,,0.00,Wunderground v.1.15,2014-09-15 07:20:00,
2014-09-15 00:25:00,75.6,46.0,29.74,SSE,167,0.0,0.0,35,0.00,,,0.00,Wunderground v.1.15,2014-09-15 07:25:00,
2014-09-15 00:30:00,75.7,46.1,29.74,SSE,167,0.0,0.0,35,0.00,,,0.00,Wunderground v.1.15,2014-09-15 07:30:00,
2014-09-15 00:40:00,75.7,46.1,29.74,SSE,167,0.0,0.0,35,0.00,,,0.00,Wunderground v.1.15,2014-09-15 07:40:00,
2014-09-15 00:45:00,75.7,46.1,29.75,SSE,167,0.0,0.0,35,0.00,,,0.00,Wunderground v.1.15,2014-09-15 07:45:00,
2014-09-15 00:50:00,75.6,46.0,29.74,SSE,167,0.0,0.0,35,0.00,,,0.00,Wunderground v.1.15,2014-09-15 07:50:00,
2014-09-15 01:00:00,75.5,45.9,29.74,SSE,167,0.0,0.0,35,0.00,,,0.00,Wunderground v.1.15,2014-09-15 08:00:00,
2014-09-15 01:05:00,75.5,45.9,29.74,SSE,167,0.0,0.0,35,0.00,,,0.00,Wunderground v.1.15,2014-09-15 08:05:00,
2014-09-15 01:10:00,75.5,45.9,29.74,SSE,167,0.0,0.0,35,0.00,,,0.00,Wunderground v.1.15,2014-09-15 08:10:00,
2014-09-15 01:20:00,75.4,46.6,29.74,SSE,167,0.0,0.0,36,0.00,,,0.00,Wunderground v.1.15,2014-09-15 08:20:00,
2014-09-15 01:25:00,75.4,46.6,29.74,SSE,167,0.0,0.0,36,0.00,,,0.00,Wunderground v.1.15,2014-09-15 08:25:00,
2014-09-15 01:30:00,75.5,46.7,29.74,SSE,167,0.0,0.0,36,0.00,,,0.00,Wunderground v.1.15,2014-09-15 08:30:00,
2014-09-15 01:35:00,75.5,46.7,29.74,SSE,167,0.0,0.0,36,0.00,,,0.00,Wunderground v.1.15,2014-09-15 08:35:00,
2014-09-15 01:40:00,75.5,46.7,29.74,SSE,167,0.0,0.0,36,0.00,,,0.00,Wunderground v.1.15,2014-09-15 08:40:00,
2014-09-15 01:50:00,75.1,46.3,29.74,SSE,167,0.0,0.0,36,0.00,,,0.00,Wunderground v.1.15,2014-09-15 08:50:00,
2014-09-15 01:55:00,74.7,46.0,29.74,SSE,167,0.0,0.0,36,0.00,,,0.00,Wunderground v.1.15,2014-09-15 08:55:00,
2014-09-15 02:00:00,74.4,46.4,29.75,SSE,167,0.0,0.0,37,0.00,,,0.00,Wunderground v.1.15,2014-09-15 09:00:00,
2014-09-15 02:05:00,74.2,46.2,29.74,SSE,167,0.0,0.0,37,0.00,,,0.00,Wunderground v.1.15,2014-09-15 09:05:00,
2014-09-15 02:15:00,74.0,46.8,29.75,SSE,167,0.0,0.0,38,0.00,,,0.00,Wunderground v.1.15,2014-09-15 09:15:00,
2014-09-15 02:20:00,74.1,46.9,29.75,SSE,167,0.0,0.0,38,0.00,,,0.00,Wunderground v.1.15,2014-09-15 09:20:00,
2014-09-15 02:25:00,73.9,47.4,29.75,SSE,167,0.0,0.0,39,0.00,,,0.00,Wunderground v.1.15,2014-09-15 09:25:00,
2014-09-15 02:30:00,73.6,47.1,29.75,SSE,167,0.0,0.0,39,0.00,,,0.00,Wunderground v.1.15,2014-09-15 09:30:00,
2014-09-15 02:35:00,73.4,46.2,29.75,SSE,167,0.0,0.0,38,0.00,,,0.00,Wunderground v.1.15,2014-09-15 09:35:00,
2014-09-15 02:40:00,73.3,46.8,29.75,SSE,167,0.0,0.0,39,0.00,,,0.00,Wunderground v.1.15,2014-09-15 09:40:00,
2014-09-15 02:45:00,71.8,48.7,29.75,SSE,167,2.0,5.0,44,0.00,,,0.00,Wunderground v.1.15,2014-09-15 09:45:00,
2014-09-15 02:50:00,70.7,47.7,29.75,SSE,167,2.0,2.0,44,0.00,,,0.00,Wunderground v.1.15,2014-09-15 09:50:00,
2014-09-15 02:55:00,70.4,48.0,29.75,SSE,167,1.0,2.0,45,0.00,,,0.00,Wunderground v.1.15,2014-09-15 09:55:00,
2014-09-15 03:00:00,70.0,47.7,29.75,SSE,167,0.0,0.0,45,0.00,,,0.00,Wunderground v.1.15,2014-09-15 10:00:00,
2014-09-15 03:05:00,69.3,48.2,29.75,SSE,167,0.0,0.0,47,0.00,,,0.00,Wunderground v.1.15,2014-09-15 10:05:00,
2014-09-15 03:10:00,68.8,49.9,29.75,SSE,167,0.0,0.0,51,0.00,,,0.00,Wunderground v.1.15,2014-09-15 10:10:00,
2014-09-15 03:15:00,68.4,49.6,29.76,SSE,167,0.0,0.0,51,0.00,,,0.00,Wunderground v.1.15,2014-09-15 10:15:00,
2014-09-15 03:20:00,68.0,49.7,29.76,SSE,167,0.0,0.0,52,0.00,,,0.00,Wunderground v.1.15,2014-09-15 10:20:00,
2014-09-15 03:30:00,67.5,49.3,29.76,SSE,167,0.0,0.0,52,0.00,,,0.00,Wunderground v.1.15,2014-09-15 10:30:00,
2014-09-15 03:35:00,67.5,49.8,29.76,SSE,167,0.0,0.0,53,0.00,,,0.00,Wunderground v.1.15,2014-09-15 10:35:00,
2014-09-15 03:45:00,67.4,50.2,29.76,SSE,167,0.0,0.0,54,0.00,,,0.00,Wunderground v.1.15,2014-09-15 10:45:00,
2014-09-15 03:50:00,67.2,51.0,29.76,SSE,167,0.0,0.0,56,0.00,,,0.00,Wunderground v.1.15,2014-09-15 10:50:00,
2014-09-15 03:55:00,67.0,50.8,29.76,SSE,167,0.0,0.0,56,0.00,,,0.00,Wunderground v.1.15,2014-09-15 10:55:00,
2014-09-15 04:00:00,66.9,51.6,29.76,SSE,167,0.0,0.0,58,0.00,,,0.00,Wunderground v.1.15,2014-09-15 11:00:00,
2014-09-15 04:05:00,67.4,52.1,29.76,SSE,167,0.0,0.0,58,0.00,,,0.00,Wunderground v.1.15,2014-09-15 11:05:00,
2014-09-15 04:15:00,69.2,52.3,29.76,SSE,167,0.0,0.0,55,0.00,,,0.00,Wunderground v.1.15,2014-09-15 11:15:00,
2014-09-15 04:20:00,69.8,52.4,29.76,SSE,167,0.0,0.0,54,0.00,,,0.00,Wunderground v.1.15,2014-09-15 11:20:00,
2014-09-15 04:25:00,70.2,52.3,29.76,SSE,167,0.0,0.0,53,0.00,,,0.00,Wunderground v.1.15,2014-09-15 11:25:00,
2014-09-15 04:30:00,70.2,52.3,29.76,SSE,167,0.0,0.0,53,0.00,,,0.00,Wunderground v.1.15,2014-09-15 11:30:00,
2014-09-15 04:35:00,69.8,52.4,29.76,SSE,167,0.0,0.0,54,0.00,,,0.00,Wunderground v.1.15,2014-09-15 11:35:00,
2014-09-15 04:40:00,69.4,52.5,29.76,SSE,167,0.0,0.0,55,0.00,,,0.00,Wunderground v.1.15,2014-09-15 11:40:00,
2014-09-15 04:45:00,69.5,52.1,29.76,SSE,167,0.0,0.0,54,0.00,,,0.00,Wunderground v.1.15,2014-09-15 11:45:00,
2014-09-15 04:55:00,69.5,52.1,29.77,SSE,167,0.0,0.0,54,0.00,,,0.00,Wunderground v.1.15,2014-09-15 11:55:00,
2014-09-15 05:00:00,69.5,52.6,29.77,SSE,167,0.0,0.0,55,0.00,,,0.00,Wunderground v.1.15,2014-09-15 12:00:00,
2014-09-15 05:05:00,69.4,52.5,29.77,SSE,167,0.0,0.0,55,0.00,,,0.00,Wunderground v.1.15,2014-09-15 12:05:00,
2014-09-15 05:10:00,69.3,52.9,29.77,SSE,167,0.0,0.0,56,0.00,,,0.00,Wunderground v.1.15,2014-09-15 12:10:00,
2014-09-15 05:15:00,68.5,53.1,29.77,SSE,167,0.0,0.0,58,0.00,,,0.00,Wunderground v.1.15,2014-09-15 12:15:00,
2014-09-15 05:20:00,67.3,52.9,29.77,SSE,167,0.0,0.0,60,0.00,,,0.00,Wunderground v.1.15,2014-09-15 12:20:00,
2014-09-15 05:25:00,66.5,53.1,29.77,SSE,167,0.0,0.0,62,0.00,,,0.00,Wunderground v.1.15,2014-09-15 12:25:00,
2014-09-15 05:30:00,66.2,53.2,29.78,SSE,167,0.0,0.0,63,0.00,,,0.00,Wunderground v.1.15,2014-09-15 12:30:00,
2014-09-15 05:35:00,65.8,52.9,29.78,SSE,167,0.0,0.0,63,0.00,,,0.00,Wunderground v.1.15,2014-09-15 12:35:00,
2014-09-15 05:45:00,65.4,53.3,29.78,SSE,167,0.0,0.0,65,0.00,,,0.00,Wunderground v.1.15,2014-09-15 12:45:00,
2014-09-15 05:50:00,65.1,53.5,29.78,SSE,167,0.0,0.0,66,0.00,,,0.00,Wunderground v.1.15,2014-09-15 12:50:00,
2014-09-15 05:55:00,64.7,53.5,29.78,SSE,167,0.0,0.0,67,0.00,,,0.00,Wunderground v.1.15,2014-09-15 12:55:00,
2014-09-15 06:00:00,64.6,53.4,29.78,SSE,167,0.0,0.0,67,0.00,,,0.00,Wunderground v.1.15,2014-09-15 13:00:00,
2014-09-15 06:05:00,64.3,53.9,29.79,SSE,167,0.0,0.0,69,0.00,,,0.00,Wunderground v.1.15,2014-09-15 13:05:00,
2014-09-15 06:10:00,64.1,53.7,29.79,SSE,167,0.0,0.0,69,0.00,,,0.00,Wunderground v.1.15,2014-09-15 13:10:00,
2014-09-15 06:15:00,63.9,53.5,29.79,SSE,167,0.0,0.0,69,0.00,,,0.00,Wunderground v.1.15,2014-09-15 13:15:00,
2014-09-15 06:20:00,63.8,53.8,29.79,SSE,167,0.0,0.0,70,0.00,,,0.00,Wunderground v.1.15,2014-09-15 13:20:00,
2014-09-15 06:25:00,63.7,53.7,29.79,SSE,167,0.0,0.0,70,0.00,,,0.00,Wunderground v.1.15,2014-09-15 13:25:00,
2014-09-15 06:35:00,63.9,53.5,29.79,SSE,167,0.0,0.0,69,0.00,,,0.00,Wunderground v.1.15,2014-09-15 13:35:00,
2014-09-15 06:45:00,64.1,53.3,29.79,SSE,167,0.0,0.0,68,0.00,,,0.00,Wunderground v.1.15,2014-09-15 13:45:00,
2014-09-15 06:50:00,64.2,53.4,29.80,SSE,167,0.0,0.0,68,0.00,,,0.00,Wunderground v.1.15,2014-09-15 13:50:00,
2014-09-15 06:55:00,64.2,53.8,29.80,SSE,167,0.0,0.0,69,0.00,,,0.00,Wunderground v.1.15,2014-09-15 13:55:00,
2014-09-15 07:05:00,64.8,53.2,29.80,SSE,167,0.0,0.0,66,0.00,,,0.00,Wunderground v.1.15,2014-09-15 14:05:00,
2014-09-15 07:10:00,65.1,52.2,29.80,SSE,167,0.0,0.0,63,0.00,,,0.00,Wunderground v.1.15,2014-09-15 14:10:00,
2014-09-15 07:15:00,65.4,52.9,29.80,SSE,167,0.0,0.0,64,0.00,,,0.00,Wunderground v.1.15,2014-09-15 14:15:00,
2014-09-15 07:25:00,66.6,51.4,29.80,SSE,167,0.0,0.0,58,0.00,,,0.00,Wunderground v.1.15,2014-09-15 14:25:00,
2014-09-15 07:30:00,67.9,50.6,29.80,SSE,167,0.0,0.0,54,0.00,,,0.00,Wunderground v.1.15,2014-09-15 14:30:00,
2014-09-15 07:35:00,68.5,50.7,29.80,SSE,167,0.0,0.0,53,0.00,,,0.00,Wunderground v.1.15,2014-09-15 14:35:00,
2014-09-15 07:40:00,68.8,52.0,29.81,SSE,167,0.0,0.0,55,0.00,,,0.00,Wunderground v.1.15,2014-09-15 14:40:00,
2014-09-15 07:50:00,68.3,53.4,29.81,SSE,167,0.0,0.0,59,0.00,,,0.00,Wunderground v.1.15,2014-09-15 14:50:00,
2014-09-15 07:55:00,67.8,54.7,29.82,SSE,167,0.0,0.0,63,0.00,,,0.00,Wunderground v.1.15,2014-09-15 14:55:00,
2014-09-15 08:00:00,67.4,55.2,29.81,SSE,167,0.0,0.0,65,0.00,,,0.00,Wunderground v.1.15,2014-09-15 15:00:00,
2014-09-15 08:05:00,67.4,55.2,29.81,SSE,167,0.0,0.0,65,0.00,,,0.00,Wunderground v.1.15,2014-09-15 15:05:00,
2014-09-15 08:10:00,67.7,55.5,29.81,SSE,167,0.0,0.0,65,0.00,,,0.00,Wunderground v.1.15,2014-09-15 15:10:00,
2014-09-15 08:20:00,68.9,54.4,29.81,SSE,167,0.0,0.0,60,0.00,,,0.00,Wunderground v.1.15,2014-09-15 15:20:00,
2014-09-15 08:25:00,69.0,53.6,29.82,SSE,167,0.0,0.0,58,0.00,,,0.00,Wunderground v.1.15,2014-09-15 15:25:00,
2014-09-15 08:30:00,68.8,54.8,29.82,SSE,167,0.0,0.0,61,0.00,,,0.00,Wunderground v.1.15,2014-09-15 15:30:00,
2014-09-15 08:35:00,68.7,55.2,29.82,SSE,167,0.0,0.0,62,0.00,,,0.00,Wunderground v.1.15,2014-09-15 15:35:00,
2014-09-15 08:45:00,69.4,54.9,29.82,SSE,167,0.0,0.0,60,0.00,,,0.00,Wunderground v.1.15,2014-09-15 15:45:00,
2014-09-15 08:55:00,70.0,55.5,29.83,SSE,167,0.0,0.0,60,0.00,,,0.00,Wunderground v.1.15,2014-09-15 15:55:00,
2014-09-15 09:00:00,70.2,56.1,29.83,SSE,167,0.0,0.0,61,0.00,,,0.00,Wunderground v.1.15,2014-09-15 16:00:00,
2014-09-15 09:05:00,70.7,57.0,29.83,SSE,167,0.0,0.0,62,0.00,,,0.00,Wunderground v.1.15,2014-09-15 16:05:00,
2014-09-15 09:10:00,71.7,56.6,29.83,SSE,167,0.0,0.0,59,0.00,,,0.00,Wunderground v.1.15,2014-09-15 16:10:00,
2014-09-15 09:15:00,73.4,54.7,29.83,SSE,167,0.0,0.0,52,0.00,,,0.00,Wunderground v.1.15,2014-09-15 16:15:00,
2014-09-15 09:20:00,75.1,54.1,29.83,SSE,167,0.0,0.0,48,0.00,,,0.00,Wunderground v.1.15,2014-09-15 16:20:00,
2014-09-15 09:25:00,75.7,54.6,29.83,SSE,167,0.0,4.0,48,0.00,,,0.00,Wunderground v.1.15,2014-09-15 16:25:00,
2014-09-15 09:35:00,76.5,54.8,29.83,SSE,167,2.0,4.0,47,0.00,,,0.00,Wunderground v.1.15,2014-09-15 16:35:00,
2014-09-15 09:40:00,77.0,55.2,29.83,SSE,167,1.0,1.0,47,0.00,,,0.00,Wunderground v.1.15,2014-09-15 16:40:00,
2014-09-15 09:45:00,77.4,54.4,29.82,SSE,167,3.0,6.0,45,0.00,,,0.00,Wunderground v.1.15,2014-09-15 16:45:00,
2014-09-15 09:50:00,77.3,54.9,29.83,SSE,167,5.0,8.0,46,0.00,,,0.00,Wunderground v.1.15,2014-09-15 16:50:00,
2014-09-15 09:55:00,77.8,57.7,29.83,SSE,167,3.0,8.0,50,0.00,,,0.00,Wunderground v.1.15,2014-09-15 16:55:00,
2014-09-15 10:00:00,78.3,55.2,29.83,SSE,167,2.0,2.0,45,0.00,,,0.00,Wunderground v.1.15,2014-09-15 17:00:00,
2014-09-15 10:05:00,79.2,57.2,29.83,SSE,167,2.0,2.0,47,0.00,,,0.00,Wunderground v.1.15,2014-09-15 17:05:00,
2014-09-15 10:10:00,79.4,56.8,29.83,SSE,167,1.0,1.0,46,0.00,,,0.00,Wunderground v.1.15,2014-09-15 17:10:00,
2014-09-15 10:15:00,79.6,58.2,29.82,SSE,167,1.0,1.0,48,0.00,,,0.00,Wunderground v.1.15,2014-09-15 17:15:00,
2014-09-15 10:20:00,79.8,56.6,29.82,SSE,167,1.0,1.0,45,0.00,,,0.00,Wunderground v.1.15,2014-09-15 17:20:00,
2014-09-15 10:25:00,80.2,55.7,29.83,SSE,166,1.0,1.0,43,0.00,,,0.00,Wunderground v.1.15,2014-09-15 17:25:00,
2014-09-15 10:35:00,81.1,55.8,29.82,SSE,166,0.0,0.0,42,0.00,,,0.00,Wunderground v.1.15,2014-09-15 17:35:00,
2014-09-15 10:40:00,81.2,54.6,29.82,SSE,166,0.0,0.0,40,0.00,,,0.00,Wunderground v.1.15,2014-09-15 17:40:00,
2014-09-15 10:45:00,81.8,55.8,29.83,SSE,166,0.0,0.0,41,0.00,,,0.00,Wunderground v.1.15,2014-09-15 17:45:00,
2014-09-15 10:50:00,81.9,55.2,29.82,SSE,166,1.0,1.0,40,0.00,,,0.00,Wunderground v.1.15,2014-09-15 17:50:00,
2014-09-15 10:55:00,82.2,58.1,29.82,SSE,166,1.0,1.0,44,0.00,,,0.00,Wunderground v.1.15,2014-09-15 17:55:00,
2014-09-15 11:00:00,82.6,55.8,29.83,SSE,166,2.0,5.0,40,0.00,,,0.00,Wunderground v.1.15,2014-09-15 18:00:00,
2014-09-15 11:05:00,82.4,55.7,29.82,SSE,166,3.0,5.0,40,0.00,,,0.00,Wunderground v.1.15,2014-09-15 18:05:00,
2014-09-15 11:10:00,83.0,56.9,29.82,SSE,166,2.0,2.0,41,0.00,,,0.00,Wunderground v.1.15,2014-09-15 18:10:00,
2014-09-15 11:20:00,83.7,54.7,29.82,SSE,166,1.0,4.0,37,0.00,,,0.00,Wunderground v.1.15,2014-09-15 18:20:00,
2014-09-15 11:25:00,83.6,55.3,29.82,SSE,166,2.0,4.0,38,0.00,,,0.00,Wunderground v.1.15,2014-09-15 18:25:00,
2014-09-15 11:30:00,84.1,56.5,29.82,SSE,166,2.0,2.0,39,0.00,,,0.00,Wunderground v.1.15,2014-09-15 18:30:00,
2014-09-15 11:40:00,84.8,56.4,29.82,SSE,166,0.0,0.0,38,0.00,,,0.00,Wunderground v.1.15,2014-09-15 18:40:00,
2014-09-15 11:45:00,85.2,57.4,29.82,SSE,166,0.0,0.0,39,0.00,,,0.00,Wunderground v.1.15,2014-09-15 18:45:00,
2014-09-15 11:50:00,85.5,57.0,29.82,SSE,166,0.0,0.0,38,0.00,,,0.00,Wunderground v.1.15,2014-09-15 18:50:00,
2014-09-15 11:55:00,85.7,56.4,29.82,SSE,166,1.0,1.0,37,0.00,,,0.00,Wunderground v.1.15,2014-09-15 18:55:00,
2014-09-15 12:05:00,86.1,56.8,29.81,SSE,166,0.0,1.0,37,0.00,,,0.00,Wunderground v.1.15,2014-09-15 19:05:00,
2014-09-15 12:10:00,86.5,56.4,29.81,SSE,166,0.0,0.0,36,0.00,,,0.00,Wunderground v.1.15,2014-09-15 19:10:00,
2014-09-15 12:15:00,86.5,58.6,29.81,SSE,166,0.0,0.0,39,0.00,,,0.00,Wunderground v.1.15,2014-09-15 19:15:00,
2014-09-15 12:25:00,87.6,56.6,29.81,SSE,166,1.0,5.0,35,0.00,,,0.00,Wunderground v.1.15,2014-09-15 19:25:00,
2014-09-15 12:35:00,88.1,57.0,29.81,SSE,166,3.0,9.0,35,0.00,,,0.00,Wunderground v.1.15,2014-09-15 19:35:00,
2014-09-15 12:40:00,88.1,56.2,29.81,SSE,166,3.0,4.0,34,0.00,,,0.00,Wunderground v.1.15,2014-09-15 19:40:00,
2014-09-15 12:45:00,88.2,56.3,29.81,SSE,166,4.0,5.0,34,0.00,,,0.00,Wunderground v.1.15,2014-09-15 19:45:00,
2014-09-15 12:50:00,88.3,56.4,29.81,SSE,166,4.0,5.0,34,0.00,,,0.00,Wunderground v.1.15,2014-09-15 19:50:00,
2014-09-15 12:55:00,88.8,56.0,29.81,SSE,166,3.0,5.0,33,0.00,,,0.00,Wunderground v.1.15,2014-09-15 19:55:00,
2014-09-15 13:00:00,89.1,56.2,29.80,SSE,166,3.0,3.0,33,0.00,,,0.00,Wunderground v.1.15,2014-09-15 20:00:00,
2014-09-15 13:05:00,89.1,56.2,29.80,SSE,166,5.0,5.0,33,0.00,,,0.00,Wunderground v.1.15,2014-09-15 20:05:00,
2014-09-15 13:15:00,89.2,57.2,29.80,SSE,166,5.0,12.0,34,0.00,,,0.00,Wunderground v.1.15,2014-09-15 20:15:00,
2014-09-15 13:25:00,89.1,56.2,29.80,SSE,167,8.0,10.0,33,0.00,,,0.00,Wunderground v.1.15,2014-09-15 20:25:00,
2014-09-15 13:30:00,89.7,55.0,29.80,South,169,6.0,12.0,31,0.00,,,0.00,Wunderground v.1.15,2014-09-15 20:30:00,
2014-09-15 13:35:00,89.7,53.2,29.80,South,170,4.0,12.0,29,0.00,,,0.00,Wunderground v.1.15,2014-09-15 20:35:00,
2014-09-15 13:45:00,89.2,55.5,29.80,South,169,7.0,13.0,32,0.00,,,0.00,Wunderground v.1.15,2014-09-15 20:45:00,
2014-09-15 13:50:00,89.7,54.1,29.79,South,169,6.0,6.0,30,0.00,,,0.00,Wunderground v.1.15,2014-09-15 20:50:00,
2014-09-15 13:55:00,89.8,53.3,29.79,South,172,5.0,8.0,29,0.00,,,0.00,Wunderground v.1.15,2014-09-15 20:55:00,
2014-09-15 14:00:00,89.9,54.3,29.79,South,173,6.0,6.0,30,0.00,,,0.00,Wunderground v.1.15,2014-09-15 21:00:00,
2014-09-15 14:05:00,90.1,53.6,29.79,South,171,5.0,9.0,29,0.00,,,0.00,Wunderground v.1.15,2014-09-15 21:05:00,
2014-09-15 14:10:00,90.0,52.5,29.79,South,171,6.0,7.0,28,0.00,,,0.00,Wunderground v.1.15,2014-09-15 21:10:00,
2014-09-15 14:20:00,90.6,53.0,29.79,South,173,5.0,6.0,28,0.00,,,0.00,Wunderground v.1.15,2014-09-15 21:20:00,
2014-09-15 14:25:00,91.3,52.6,29.78,South,174,5.0,6.0,27,0.00,,,0.00,Wunderground v.1.15,2014-09-15 21:25:00,
2014-09-15 14:30:00,91.4,52.7,29.78,South,175,5.0,8.0,27,0.00,,,0.00,Wunderground v.1.15,2014-09-15 21:30:00,
2014-09-15 14:35:00,91.7,53.0,29.79,South,176,6.0,8.0,27,0.00,,,0.00,Wunderground v.1.15,2014-09-15 21:35:00,
2014-09-15 14:45:00,92.2,52.4,29.78,South,176,3.0,7.0,26,0.00,,,0.00,Wunderground v.1.15,2014-09-15 21:45:00,
2014-09-15 14:50:00,91.9,53.1,29.78,South,175,4.0,4.0,27,0.00,,,0.00,Wunderground v.1.15,2014-09-15 21:50:00,
2014-09-15 15:00:00,92.4,53.6,29.78,South,175,3.0,14.0,27,0.00,,,0.00,Wunderground v.1.15,2014-09-15 22:00:00,
2014-09-15 15:05:00,92.1,52.3,29.77,South,178,5.0,14.0,26,0.00,,,0.00,Wunderground v.1.15,2014-09-15 22:05:00,
2014-09-15 15:10:00,92.4,51.5,29.77,South,178,5.0,8.0,25,0.00,,,0.00,Wunderground v.1.15,2014-09-15 22:10:00,
2014-09-15 15:15:00,92.2,52.4,29.77,South,175,6.0,11.0,26,0.00,,,0.00,Wunderground v.1.15,2014-09-15 22:15:00,
2014-09-15 15:20:00,92.3,51.4,29.77,South,171,9.0,9.0,25,0.00,,,0.00,Wunderground v.1.15,2014-09-15 22:20:00,
2014-09-15 15:30:00,92.4,52.5,29.77,South,175,8.0,8.0,26,0.00,,,0.00,Wunderground v.1.15,2014-09-15 22:30:00,
2014-09-15 15:35:00,92.9,54.0,29.76,South,175,5.0,8.0,27,0.00,,,0.00,Wunderground v.1.15,2014-09-15 22:35:00,
2014-09-15 15:40:00,92.8,51.8,29.76,SSE,157,6.0,9.0,25,0.00,,,0.00,Wunderground v.1.15,2014-09-15 22:40:00,
2014-09-15 15:50:00,92.8,51.8,29.76,SSE,159,9.0,9.0,25,0.00,,,0.00,Wunderground v.1.15,2014-09-15 22:50:00,
2014-09-15 15:55:00,92.7,52.8,29.76,SSE,157,8.0,12.0,26,0.00,,,0.00,Wunderground v.1.15,2014-09-15 22:55:00,
2014-09-15 16:00:00,92.7,51.7,29.76,SSE,167,9.0,9.0,25,0.00,,,0.00,Wunderground v.1.15,2014-09-15 23:00:00,
2014-09-15 16:05:00,92.8,51.8,29.75,SSE,167,9.0,9.0,25,0.00,,,0.00,Wunderground v.1.15,2014-09-15 23:05:00,
2014-09-15 16:10:00,92.9,51.9,29.75,SSE,166,8.0,9.0,25,0.00,,,0.00,Wunderground v.1.15,2014-09-15 23:10:00,
2014-09-15 16:20:00,92.9,53.0,29.75,South,169,8.0,8.0,26,0.00,,,0.00,Wunderground v.1.15,2014-09-15 23:20:00,
2014-09-15 16:25:00,93.3,53.3,29.75,South,170,5.0,8.0,26,0.00,,,0.00,Wunderground v.1.15,2014-09-15 23:25:00,
2014-09-15 16:35:00,93.3,54.3,29.75,South,171,5.0,9.0,27,0.00,,,0.00,Wunderground v.1.15,2014-09-15 23:35:00,
2014-09-15 16:45:00,93.4,54.4,29.75,South,169,6.0,7.0,27,0.00,,,0.00,Wunderground v.1.15,2014-09-15 23:45:00,
2014-09-15 16:50:00,93.4,55.4,29.75,South,169,6.0,6.0,28,0.00,,,0.00,Wunderground v.1.15,2014-09-15 23:50:00,
2014-09-15 16:55:00,93.5,53.5,29.75,South,170,5.0,6.0,26,0.00,,,0.00,Wunderground v.1.15,2014-09-15 23:55:00,
2014-09-15 17:00:00,93.5,55.5,29.75,South,171,6.0,7.0,28,0.00,,,0.00,Wunderground v.1.15,2014-09-16 00:00:00,
2014-09-15 17:10:00,93.6,54.6,29.75,South,170,4.0,8.0,27,0.00,,,0.00,Wunderground v.1.15,2014-09-16 00:10:00,
2014-09-15 17:15:00,93.5,54.5,29.74,South,171,6.0,8.0,27,0.00,,,0.00,Wunderground v.1.15,2014-09-16 00:15:00,
2014-09-15 17:20:00,93.5,52.4,29.74,South,171,5.0,8.0,25,0.00,,,0.00,Wunderground v.1.15,2014-09-16 00:20:00,
2014-09-15 17:25:00,93.2,51.0,29.75,South,169,6.0,8.0,24,0.00,,,0.00,Wunderground v.1.15,2014-09-16 00:25:00,
2014-09-15 17:30:00,92.9,49.6,29.75,SSE,156,9.0,9.0,23,0.00,,,0.00,Wunderground v.1.15,2014-09-16 00:30:00,
2014-09-15 17:35:00,92.9,48.5,29.75,SSE,156,8.0,9.0,22,0.00,,,0.00,Wunderground v.1.15,2014-09-16 00:35:00,
2014-09-15 17:40:00,92.9,49.6,29.75,SSE,156,6.0,8.0,23,0.00,,,0.00,Wunderground v.1.15,2014-09-16 00:40:00,
2014-09-15 17:50:00,92.6,49.4,29.74,SSE,163,7.0,7.0,23,0.00,,,0.00,Wunderground v.1.15,2014-09-16 00:50:00,
2014-09-15 17:55:00,92.5,48.1,29.74,SSE,164,7.0,14.0,22,0.00,,,0.00,Wunderground v.1.15,2014-09-16 00:55:00,
2014-09-15 19:20:00,88.7,50.4,29.74,SSE,157,3.0,3.0,27,0.00,,,0.00,Wunderground v.1.15,2014-09-16 02:20:00,
2014-09-15 19:25:00,88.4,50.2,29.74,SSE,157,3.0,3.0,27,0.00,,,0.00,Wunderground v.1.15,2014-09-16 02:25:00,
2014-09-15 19:35:00,87.9,50.7,29.74,SSE,157,3.0,3.0,28,0.00,,,0.00,Wunderground v.1.15,2014-09-16 02:35:00,
2014-09-15 19:45:00,87.3,51.2,29.74,SSE,157,2.0,3.0,29,0.00,,,0.00,Wunderground v.1.15,2014-09-16 02:45:00,
2014-09-15 19:55:00,87.0,51.8,29.74,SSE,160,5.0,5.0,30,0.00,,,0.00,Wunderground v.1.15,2014-09-16 02:55:00,
2014-09-15 20:00:00,86.7,52.4,29.75,SSE,161,6.0,6.0,31,0.00,,,0.00,Wunderground v.1.15,2014-09-16 03:00:00,
2014-09-15 20:05:00,86.2,52.9,29.75,SSE,162,6.0,6.0,32,0.00,,,0.00,Wunderground v.1.15,2014-09-16 03:05:00,
2014-09-15 20:15:00,86.1,51.9,29.75,SSE,153,9.0,9.0,31,0.00,,,0.00,Wunderground v.1.15,2014-09-16 03:15:00,
2014-09-15 20:20:00,85.9,51.8,29.76,SSE,158,9.0,9.0,31,0.00,,,0.00,Wunderground v.1.15,2014-09-16 03:20:00,
2014-09-15 20:25:00,85.6,50.6,29.76,SSE,159,8.0,10.0,30,0.00,,,0.00,Wunderground v.1.15,2014-09-16 03:25:00,
2014-09-15 20:30:00,85.4,49.5,29.76,SSE,163,9.0,12.0,29,0.00,,,0.00,Wunderground v.1.15,2014-09-16 03:30:00,
2014-09-15 20:35:00,85.1,49.3,29.76,SSE,156,9.0,12.0,29,0.00,,,0.00,Wunderground v.1.15,2014-09-16 03:35:00,
2014-09-15 20:40:00,84.7,48.9,29.76,SSE,159,9.0,10.0,29,0.00,,,0.00,Wunderground v.1.15,2014-09-16 03:40:00,
2014-09-15 20:45:00,84.3,49.5,29.77,SSE,154,9.0,12.0,30,0.00,,,0.00,Wunderground v.1.15,2014-09-16 03:45:00,
2014-09-15 20:50:00,83.9,49.1,29.77,SSE,158,10.0,10.0,30,0.00,,,0.00,Wunderground v.1.15,2014-09-16 03:50:00,
2014-09-15 20:55:00,83.5,48.8,29.77,SSE,148,11.0,17.0,30,0.00,,,0.00,Wunderground v.1.15,2014-09-16 03:55:00,
2014-09-15 21:00:00,83.3,48.6,29.77,SSE,152,10.0,10.0,30,0.00,,,0.00,Wunderground v.1.15,2014-09-16 04:00:00,
2014-09-15 21:05:00,82.9,48.3,29.77,SSE,153,9.0,10.0,30,0.00,,,0.00,Wunderground v.1.15,2014-09-16 04:05:00,
2014-09-15 21:10:00,82.7,48.1,29.77,SSE,151,9.0,10.0,30,0.00,,,0.00,Wunderground v.1.15,2014-09-16 04:10:00,
2014-09-15 21:15:00,82.4,47.8,29.77,SSE,156,10.0,10.0,30,0.00,,,0.00,Wunderground v.1.15,2014-09-16 04:15:00,
2014-09-15 21:25:00,82.1,47.6,29.78,SSE,157,9.0,9.0,30,0.00,,,0.00,Wunderground v.1.15,2014-09-16 04:25:00,
2014-09-15 21:30:00,82.0,46.6,29.78,SSE,153,9.0,13.0,29,0.00,,,0.00,Wunderground v.1.15,2014-09-16 04:30:00,
2014-09-15 21:35:00,81.8,46.4,29.78,SSE,156,9.0,13.0,29,0.00,,,0.00,Wunderground v.1.15,2014-09-16 04:35:00,
2014-09-15 21:40:00,81.6,47.2,29.78,SSE,153,9.0,9.0,30,0.00,,,0.00,Wunderground v.1.15,2014-09-16 04:40:00,
2014-09-15 21:45:00,81.4,47.0,29.78,SSE,160,9.0,9.0,30,0.00,,,0.00,Wunderground v.1.15,2014-09-16 04:45:00,
2014-09-15 21:50:00,81.2,46.8,29.78,SSE,160,10.0,10.0,30,0.00,,,0.00,Wunderground v.1.15,2014-09-16 04:50:00,